sensor_id;sensor_type;location;lat;lon;timestamp;P1;durP1;ratioP1;P2;durP2;ratioP2
56927;SDS011;60850;52.502;13.426;2023-04-06T00:00:45;9.45;;;5.65;;
56927;SDS011;60850;52.502;13.426;2023-04-06T00:03:18;9.23;;;5.78;;
56927;SDS011;60850;52.502;13.426;2023-04-06T00:05:46;15.38;;;6.05;;
56927;SDS011;60850;52.502;13.426;2023-04-06T00:08:14;13.07;;;6.78;;
56927;SDS011;60850;52.502;13.426;2023-04-06T00:10:41;13.90;;;6.50;;
56927;SDS011;60850;52.502;13.426;2023-04-06T00:13:08;12.27;;;5.82;;
56927;SDS011;60850;52.502;13.426;2023-04-06T00:15:35;10.30;;;5.65;;
56927;SDS011;60850;52.502;13.426;2023-04-06T00:18:02;10.65;;;6.15;;
56927;SDS011;60850;52.502;13.426;2023-04-06T00:20:31;11.75;;;5.97;;
56927;SDS011;60850;52.502;13.426;2023-04-06T00:22:58;13.90;;;6.70;;
56927;SDS011;60850;52.502;13.426;2023-04-06T00:25:25;10.27;;;6.38;;
56927;SDS011;60850;52.502;13.426;2023-04-06T00:27:52;14.35;;;6.15;;
56927;SDS011;60850;52.502;13.426;2023-04-06T00:30:20;10.85;;;5.72;;
56927;SDS011;60850;52.502;13.426;2023-04-06T00:32:47;8.40;;;4.93;;
56927;SDS011;60850;52.502;13.426;2023-04-06T00:35:14;8.50;;;5.30;;
56927;SDS011;60850;52.502;13.426;2023-04-06T00:37:45;9.77;;;5.40;;
56927;SDS011;60850;52.502;13.426;2023-04-06T00:40:13;10.35;;;5.30;;
56927;SDS011;60850;52.502;13.426;2023-04-06T00:42:40;9.25;;;5.35;;
56927;SDS011;60850;52.502;13.426;2023-04-06T00:45:08;7.82;;;5.22;;
56927;SDS011;60850;52.502;13.426;2023-04-06T00:47:36;8.88;;;6.25;;
56927;SDS011;60850;52.502;13.426;2023-04-06T00:50:04;7.65;;;5.07;;
56927;SDS011;60850;52.502;13.426;2023-04-06T00:52:33;8.68;;;5.35;;
56927;SDS011;60850;52.502;13.426;2023-04-06T00:55:02;7.10;;;4.47;;
56927;SDS011;60850;52.502;13.426;2023-04-06T00:57:30;9.27;;;5.38;;
56927;SDS011;60850;52.502;13.426;2023-04-06T00:59:57;10.75;;;5.50;;
56927;SDS011;60850;52.502;13.426;2023-04-06T01:02:25;8.05;;;4.95;;
56927;SDS011;60850;52.502;13.426;2023-04-06T01:04:52;10.73;;;5.28;;
56927;SDS011;60850;52.502;13.426;2023-04-06T01:07:20;9.85;;;5.32;;
56927;SDS011;60850;52.502;13.426;2023-04-06T01:09:47;8.40;;;5.13;;
56927;SDS011;60850;52.502;13.426;2023-04-06T01:12:16;6.40;;;4.72;;
56927;SDS011;60850;52.502;13.426;2023-04-06T01:14:43;9.93;;;5.10;;
56927;SDS011;60850;52.502;13.426;2023-04-06T01:17:10;12.10;;;5.60;;
56927;SDS011;60850;52.502;13.426;2023-04-06T01:19:37;8.07;;;5.05;;
56927;SDS011;60850;52.502;13.426;2023-04-06T01:22:05;11.80;;;4.78;;
56927;SDS011;60850;52.502;13.426;2023-04-06T01:24:34;8.40;;;4.78;;
56927;SDS011;60850;52.502;13.426;2023-04-06T01:27:02;8.45;;;5.03;;
56927;SDS011;60850;52.502;13.426;2023-04-06T01:29:29;11.95;;;4.57;;
56927;SDS011;60850;52.502;13.426;2023-04-06T01:31:56;10.30;;;4.32;;
56927;SDS011;60850;52.502;13.426;2023-04-06T01:34:23;10.65;;;4.88;;
56927;SDS011;60850;52.502;13.426;2023-04-06T01:36:51;9.00;;;5.32;;
56927;SDS011;60850;52.502;13.426;2023-04-06T01:39:18;8.50;;;4.65;;
56927;SDS011;60850;52.502;13.426;2023-04-06T01:41:47;9.77;;;4.28;;
56927;SDS011;60850;52.502;13.426;2023-04-06T01:44:16;14.23;;;4.82;;
56927;SDS011;60850;52.502;13.426;2023-04-06T01:46:44;8.93;;;4.70;;
56927;SDS011;60850;52.502;13.426;2023-04-06T01:49:11;11.48;;;5.43;;
56927;SDS011;60850;52.502;13.426;2023-04-06T01:51:39;7.00;;;4.55;;
56927;SDS011;60850;52.502;13.426;2023-04-06T01:54:06;7.43;;;5.00;;
56927;SDS011;60850;52.502;13.426;2023-04-06T01:56:33;8.23;;;5.00;;
56927;SDS011;60850;52.502;13.426;2023-04-06T01:59:02;11.60;;;5.68;;
56927;SDS011;60850;52.502;13.426;2023-04-06T02:01:29;8.52;;;4.70;;
56927;SDS011;60850;52.502;13.426;2023-04-06T02:03:56;8.55;;;5.30;;
56927;SDS011;60850;52.502;13.426;2023-04-06T02:06:23;10.70;;;5.45;;
56927;SDS011;60850;52.502;13.426;2023-04-06T02:08:50;9.00;;;5.22;;
56927;SDS011;60850;52.502;13.426;2023-04-06T02:11:17;10.95;;;5.60;;
56927;SDS011;60850;52.502;13.426;2023-04-06T02:13:44;10.57;;;5.40;;
56927;SDS011;60850;52.502;13.426;2023-04-06T02:16:13;9.90;;;5.15;;
56927;SDS011;60850;52.502;13.426;2023-04-06T02:18:41;8.35;;;5.13;;
56927;SDS011;60850;52.502;13.426;2023-04-06T02:21:08;8.57;;;5.43;;
56927;SDS011;60850;52.502;13.426;2023-04-06T02:23:35;9.65;;;4.80;;
56927;SDS011;60850;52.502;13.426;2023-04-06T02:26:03;6.53;;;4.57;;
56927;SDS011;60850;52.502;13.426;2023-04-06T02:28:30;8.10;;;4.85;;
56927;SDS011;60850;52.502;13.426;2023-04-06T02:30:57;9.50;;;4.60;;
56927;SDS011;60850;52.502;13.426;2023-04-06T02:33:26;11.10;;;4.50;;
56927;SDS011;60850;52.502;13.426;2023-04-06T02:35:53;8.52;;;5.35;;
56927;SDS011;60850;52.502;13.426;2023-04-06T02:38:20;10.50;;;4.75;;
56927;SDS011;60850;52.502;13.426;2023-04-06T02:40:47;7.15;;;5.03;;
56927;SDS011;60850;52.502;13.426;2023-04-06T02:43:14;6.38;;;4.53;;
56927;SDS011;60850;52.502;13.426;2023-04-06T02:45:42;8.68;;;4.88;;
56927;SDS011;60850;52.502;13.426;2023-04-06T02:48:10;9.65;;;4.50;;
56927;SDS011;60850;52.502;13.426;2023-04-06T02:50:38;7.47;;;4.18;;
56927;SDS011;60850;52.502;13.426;2023-04-06T02:53:05;8.15;;;4.85;;
56927;SDS011;60850;52.502;13.426;2023-04-06T02:55:32;8.32;;;4.55;;
56927;SDS011;60850;52.502;13.426;2023-04-06T02:57:59;7.85;;;4.57;;
56927;SDS011;60850;52.502;13.426;2023-04-06T03:00:27;7.95;;;4.25;;
56927;SDS011;60850;52.502;13.426;2023-04-06T03:02:54;8.98;;;4.68;;
56927;SDS011;60850;52.502;13.426;2023-04-06T03:05:21;7.68;;;4.88;;
56927;SDS011;60850;52.502;13.426;2023-04-06T03:07:49;8.93;;;6.07;;
56927;SDS011;60850;52.502;13.426;2023-04-06T03:10:17;10.73;;;6.70;;
56927;SDS011;60850;52.502;13.426;2023-04-06T03:12:44;9.20;;;5.95;;
56927;SDS011;60850;52.502;13.426;2023-04-06T03:15:11;10.05;;;6.75;;
56927;SDS011;60850;52.502;13.426;2023-04-06T03:17:38;12.07;;;7.57;;
56927;SDS011;60850;52.502;13.426;2023-04-06T03:20:06;13.27;;;7.35;;
56927;SDS011;60850;52.502;13.426;2023-04-06T03:22:33;10.98;;;7.50;;
56927;SDS011;60850;52.502;13.426;2023-04-06T03:25:01;10.80;;;7.65;;
56927;SDS011;60850;52.502;13.426;2023-04-06T03:27:29;10.18;;;7.85;;
56927;SDS011;60850;52.502;13.426;2023-04-06T03:29:56;12.15;;;7.38;;
56927;SDS011;60850;52.502;13.426;2023-04-06T03:32:23;11.60;;;7.68;;
56927;SDS011;60850;52.502;13.426;2023-04-06T03:34:50;12.00;;;7.63;;
56927;SDS011;60850;52.502;13.426;2023-04-06T03:37:17;11.52;;;8.07;;
56927;SDS011;60850;52.502;13.426;2023-04-06T03:39:45;11.63;;;7.70;;
56927;SDS011;60850;52.502;13.426;2023-04-06T03:42:13;21.05;;;8.68;;
56927;SDS011;60850;52.502;13.426;2023-04-06T03:44:40;11.77;;;8.43;;
56927;SDS011;60850;52.502;13.426;2023-04-06T03:47:07;13.27;;;8.40;;
56927;SDS011;60850;52.502;13.426;2023-04-06T03:49:35;12.55;;;8.77;;
56927;SDS011;60850;52.502;13.426;2023-04-06T03:52:02;12.73;;;7.88;;
56927;SDS011;60850;52.502;13.426;2023-04-06T03:54:29;16.45;;;8.77;;
56927;SDS011;60850;52.502;13.426;2023-04-06T03:56:56;11.95;;;8.43;;
56927;SDS011;60850;52.502;13.426;2023-04-06T03:59:25;14.90;;;8.18;;
56927;SDS011;60850;52.502;13.426;2023-04-06T04:01:52;11.07;;;7.63;;
56927;SDS011;60850;52.502;13.426;2023-04-06T04:04:19;13.18;;;7.43;;
56927;SDS011;60850;52.502;13.426;2023-04-06T04:06:46;11.60;;;8.30;;
56927;SDS011;60850;52.502;13.426;2023-04-06T04:09:14;15.05;;;8.82;;
56927;SDS011;60850;52.502;13.426;2023-04-06T04:11:41;13.45;;;8.45;;
56927;SDS011;60850;52.502;13.426;2023-04-06T04:14:08;14.48;;;8.55;;
56927;SDS011;60850;52.502;13.426;2023-04-06T04:16:37;11.88;;;8.10;;
56927;SDS011;60850;52.502;13.426;2023-04-06T04:19:04;16.65;;;8.65;;
56927;SDS011;60850;52.502;13.426;2023-04-06T04:21:32;14.32;;;8.52;;
56927;SDS011;60850;52.502;13.426;2023-04-06T04:23:59;11.65;;;7.75;;
56927;SDS011;60850;52.502;13.426;2023-04-06T04:26:26;12.30;;;7.55;;
56927;SDS011;60850;52.502;13.426;2023-04-06T04:28:53;13.93;;;7.53;;
56927;SDS011;60850;52.502;13.426;2023-04-06T04:31:20;15.52;;;7.68;;
56927;SDS011;60850;52.502;13.426;2023-04-06T04:33:49;12.63;;;7.43;;
56927;SDS011;60850;52.502;13.426;2023-04-06T04:36:17;12.30;;;7.50;;
56927;SDS011;60850;52.502;13.426;2023-04-06T04:38:44;12.90;;;6.95;;
56927;SDS011;60850;52.502;13.426;2023-04-06T04:41:11;12.90;;;6.82;;
56927;SDS011;60850;52.502;13.426;2023-04-06T04:43:38;13.95;;;7.82;;
56927;SDS011;60850;52.502;13.426;2023-04-06T04:46:05;12.65;;;7.72;;
56927;SDS011;60850;52.502;13.426;2023-04-06T04:48:32;12.73;;;7.30;;
56927;SDS011;60850;52.502;13.426;2023-04-06T04:51:01;13.85;;;6.93;;
56927;SDS011;60850;52.502;13.426;2023-04-06T04:53:28;12.98;;;7.00;;
56927;SDS011;60850;52.502;13.426;2023-04-06T04:55:55;11.30;;;6.88;;
56927;SDS011;60850;52.502;13.426;2023-04-06T04:58:22;12.38;;;6.65;;
56927;SDS011;60850;52.502;13.426;2023-04-06T05:00:49;11.35;;;6.57;;
56927;SDS011;60850;52.502;13.426;2023-04-06T05:03:17;14.50;;;7.15;;
56927;SDS011;60850;52.502;13.426;2023-04-06T05:05:47;10.35;;;6.72;;
56927;SDS011;60850;52.502;13.426;2023-04-06T05:08:16;13.38;;;7.10;;
56927;SDS011;60850;52.502;13.426;2023-04-06T05:10:44;12.02;;;6.63;;
56927;SDS011;60850;52.502;13.426;2023-04-06T05:13:12;9.30;;;5.97;;
56927;SDS011;60850;52.502;13.426;2023-04-06T05:15:39;10.18;;;6.88;;
56927;SDS011;60850;52.502;13.426;2023-04-06T05:18:07;10.80;;;6.57;;
56927;SDS011;60850;52.502;13.426;2023-04-06T05:20:34;9.70;;;6.72;;
56927;SDS011;60850;52.502;13.426;2023-04-06T05:23:02;9.48;;;6.43;;
56927;SDS011;60850;52.502;13.426;2023-04-06T05:25:31;12.43;;;6.47;;
56927;SDS011;60850;52.502;13.426;2023-04-06T05:27:59;10.43;;;6.38;;
56927;SDS011;60850;52.502;13.426;2023-04-06T05:30:26;9.93;;;5.45;;
56927;SDS011;60850;52.502;13.426;2023-04-06T05:32:53;9.05;;;5.80;;
56927;SDS011;60850;52.502;13.426;2023-04-06T05:35:20;14.43;;;6.30;;
56927;SDS011;60850;52.502;13.426;2023-04-06T05:37:48;7.45;;;5.68;;
56927;SDS011;60850;52.502;13.426;2023-04-06T05:40:15;8.60;;;5.72;;
56927;SDS011;60850;52.502;13.426;2023-04-06T05:42:43;9.77;;;5.30;;
56927;SDS011;60850;52.502;13.426;2023-04-06T05:45:11;10.88;;;5.68;;
56927;SDS011;60850;52.502;13.426;2023-04-06T05:47:42;13.27;;;6.20;;
56927;SDS011;60850;52.502;13.426;2023-04-06T05:50:09;9.30;;;5.47;;
56927;SDS011;60850;52.502;13.426;2023-04-06T05:52:37;11.95;;;6.35;;
56927;SDS011;60850;52.502;13.426;2023-04-06T05:55:08;10.40;;;6.10;;
56927;SDS011;60850;52.502;13.426;2023-04-06T05:57:36;9.20;;;5.82;;
56927;SDS011;60850;52.502;13.426;2023-04-06T06:00:05;11.60;;;7.00;;
56927;SDS011;60850;52.502;13.426;2023-04-06T06:02:35;9.25;;;5.88;;
56927;SDS011;60850;52.502;13.426;2023-04-06T06:05:02;9.15;;;5.85;;
56927;SDS011;60850;52.502;13.426;2023-04-06T06:07:30;7.60;;;5.75;;
56927;SDS011;60850;52.502;13.426;2023-04-06T06:09:57;8.77;;;6.57;;
56927;SDS011;60850;52.502;13.426;2023-04-06T06:12:24;12.75;;;6.50;;
56927;SDS011;60850;52.502;13.426;2023-04-06T06:14:51;11.40;;;6.55;;
56927;SDS011;60850;52.502;13.426;2023-04-06T06:17:20;10.38;;;5.82;;
56927;SDS011;60850;52.502;13.426;2023-04-06T06:19:47;11.07;;;6.10;;
56927;SDS011;60850;52.502;13.426;2023-04-06T06:22:15;7.57;;;5.68;;
56927;SDS011;60850;52.502;13.426;2023-04-06T06:24:42;12.68;;;6.43;;
56927;SDS011;60850;52.502;13.426;2023-04-06T06:27:09;8.98;;;5.82;;
56927;SDS011;60850;52.502;13.426;2023-04-06T06:29:36;9.02;;;5.43;;
56927;SDS011;60850;52.502;13.426;2023-04-06T06:32:03;10.55;;;6.03;;
56927;SDS011;60850;52.502;13.426;2023-04-06T06:34:32;9.30;;;5.25;;
56927;SDS011;60850;52.502;13.426;2023-04-06T06:37:00;13.85;;;6.38;;
56927;SDS011;60850;52.502;13.426;2023-04-06T06:39:28;9.05;;;5.97;;
56927;SDS011;60850;52.502;13.426;2023-04-06T06:41:55;12.00;;;5.65;;
56927;SDS011;60850;52.502;13.426;2023-04-06T06:44:22;9.60;;;5.70;;
56927;SDS011;60850;52.502;13.426;2023-04-06T06:46:50;9.57;;;5.70;;
56927;SDS011;60850;52.502;13.426;2023-04-06T06:49:17;10.73;;;5.63;;
56927;SDS011;60850;52.502;13.426;2023-04-06T06:51:46;7.65;;;5.28;;
56927;SDS011;60850;52.502;13.426;2023-04-06T06:54:13;11.45;;;5.68;;
56927;SDS011;60850;52.502;13.426;2023-04-06T06:56:41;10.20;;;5.65;;
56927;SDS011;60850;52.502;13.426;2023-04-06T06:59:07;9.90;;;5.13;;
56927;SDS011;60850;52.502;13.426;2023-04-06T07:01:35;8.48;;;5.50;;
56927;SDS011;60850;52.502;13.426;2023-04-06T07:04:02;6.05;;;4.75;;
56927;SDS011;60850;52.502;13.426;2023-04-06T07:06:30;8.02;;;5.20;;
56927;SDS011;60850;52.502;13.426;2023-04-06T07:08:58;10.55;;;4.80;;
56927;SDS011;60850;52.502;13.426;2023-04-06T07:11:25;10.00;;;5.22;;
56927;SDS011;60850;52.502;13.426;2023-04-06T07:13:52;9.32;;;5.30;;
56927;SDS011;60850;52.502;13.426;2023-04-06T07:16:20;8.55;;;5.30;;
56927;SDS011;60850;52.502;13.426;2023-04-06T07:18:47;8.68;;;5.03;;
56927;SDS011;60850;52.502;13.426;2023-04-06T07:21:14;8.35;;;4.90;;
56927;SDS011;60850;52.502;13.426;2023-04-06T07:23:41;8.40;;;5.00;;
56927;SDS011;60850;52.502;13.426;2023-04-06T07:26:10;7.63;;;4.72;;
56927;SDS011;60850;52.502;13.426;2023-04-06T07:28:37;6.10;;;4.50;;
56927;SDS011;60850;52.502;13.426;2023-04-06T07:31:05;10.35;;;4.75;;
56927;SDS011;60850;52.502;13.426;2023-04-06T07:33:32;8.57;;;4.40;;
56927;SDS011;60850;52.502;13.426;2023-04-06T07:35:59;9.95;;;4.88;;
56927;SDS011;60850;52.502;13.426;2023-04-06T07:38:26;6.22;;;4.13;;
56927;SDS011;60850;52.502;13.426;2023-04-06T07:40:54;6.35;;;4.45;;
56927;SDS011;60850;52.502;13.426;2023-04-06T07:43:22;6.10;;;4.10;;
56927;SDS011;60850;52.502;13.426;2023-04-06T07:45:50;7.78;;;4.40;;
56927;SDS011;60850;52.502;13.426;2023-04-06T07:48:18;5.65;;;3.95;;
56927;SDS011;60850;52.502;13.426;2023-04-06T07:50:46;5.38;;;3.30;;
56927;SDS011;60850;52.502;13.426;2023-04-06T07:53:13;4.68;;;3.55;;
56927;SDS011;60850;52.502;13.426;2023-04-06T07:55:40;6.80;;;3.00;;
56927;SDS011;60850;52.502;13.426;2023-04-06T07:58:07;5.28;;;3.60;;
56927;SDS011;60850;52.502;13.426;2023-04-06T08:00:36;3.72;;;3.30;;
56927;SDS011;60850;52.502;13.426;2023-04-06T08:03:03;6.90;;;3.65;;
56927;SDS011;60850;52.502;13.426;2023-04-06T08:05:30;8.07;;;3.50;;
56927;SDS011;60850;52.502;13.426;2023-04-06T08:07:57;8.45;;;3.75;;
56927;SDS011;60850;52.502;13.426;2023-04-06T08:10:25;5.40;;;2.90;;
56927;SDS011;60850;52.502;13.426;2023-04-06T08:12:52;5.50;;;3.38;;
56927;SDS011;60850;52.502;13.426;2023-04-06T08:15:19;8.02;;;3.10;;
56927;SDS011;60850;52.502;13.426;2023-04-06T08:17:48;5.95;;;3.35;;
56927;SDS011;60850;52.502;13.426;2023-04-06T08:20:15;6.05;;;3.20;;
56927;SDS011;60850;52.502;13.426;2023-04-06T08:22:42;5.65;;;3.13;;
56927;SDS011;60850;52.502;13.426;2023-04-06T08:25:09;4.35;;;3.15;;
56927;SDS011;60850;52.502;13.426;2023-04-06T08:27:36;3.17;;;2.40;;
56927;SDS011;60850;52.502;13.426;2023-04-06T08:30:04;4.35;;;2.70;;
56927;SDS011;60850;52.502;13.426;2023-04-06T08:32:32;3.25;;;2.33;;
56927;SDS011;60850;52.502;13.426;2023-04-06T08:35:01;4.65;;;2.25;;
56927;SDS011;60850;52.502;13.426;2023-04-06T08:37:28;3.65;;;2.08;;
56927;SDS011;60850;52.502;13.426;2023-04-06T08:39:55;5.05;;;3.03;;
56927;SDS011;60850;52.502;13.426;2023-04-06T08:42:24;5.55;;;2.83;;
56927;SDS011;60850;52.502;13.426;2023-04-06T08:44:53;6.90;;;3.40;;
56927;SDS011;60850;52.502;13.426;2023-04-06T08:47:21;4.65;;;2.50;;
56927;SDS011;60850;52.502;13.426;2023-04-06T08:49:49;4.47;;;2.58;;
56927;SDS011;60850;52.502;13.426;2023-04-06T08:52:18;4.38;;;2.40;;
56927;SDS011;60850;52.502;13.426;2023-04-06T08:54:46;3.95;;;2.58;;
56927;SDS011;60850;52.502;13.426;2023-04-06T08:57:14;4.70;;;2.35;;
56927;SDS011;60850;52.502;13.426;2023-04-06T08:59:43;3.67;;;1.98;;
56927;SDS011;60850;52.502;13.426;2023-04-06T09:02:11;4.78;;;1.85;;
56927;SDS011;60850;52.502;13.426;2023-04-06T09:04:44;10.23;;;2.30;;
56927;SDS011;60850;52.502;13.426;2023-04-06T09:07:14;3.45;;;1.90;;
56927;SDS011;60850;52.502;13.426;2023-04-06T09:09:43;3.67;;;1.90;;
56927;SDS011;60850;52.502;13.426;2023-04-06T09:12:21;5.10;;;2.25;;
56927;SDS011;60850;52.502;13.426;2023-04-06T09:14:49;3.65;;;1.95;;
56927;SDS011;60850;52.502;13.426;2023-04-06T09:17:20;4.15;;;2.30;;
56927;SDS011;60850;52.502;13.426;2023-04-06T09:19:48;5.70;;;2.40;;
56927;SDS011;60850;52.502;13.426;2023-04-06T09:22:15;4.13;;;1.95;;
56927;SDS011;60850;52.502;13.426;2023-04-06T09:24:45;3.88;;;1.90;;
56927;SDS011;60850;52.502;13.426;2023-04-06T09:27:13;4.82;;;2.22;;
56927;SDS011;60850;52.502;13.426;2023-04-06T09:29:41;4.32;;;2.30;;
56927;SDS011;60850;52.502;13.426;2023-04-06T09:32:08;6.15;;;2.15;;
56927;SDS011;60850;52.502;13.426;2023-04-06T09:34:37;2.92;;;1.98;;
56927;SDS011;60850;52.502;13.426;2023-04-06T09:37:14;3.17;;;1.77;;
56927;SDS011;60850;52.502;13.426;2023-04-06T09:39:41;3.33;;;1.90;;
56927;SDS011;60850;52.502;13.426;2023-04-06T09:42:11;3.28;;;1.83;;
56927;SDS011;60850;52.502;13.426;2023-04-06T09:44:49;2.53;;;1.60;;
56927;SDS011;60850;52.502;13.426;2023-04-06T09:47:17;4.43;;;1.90;;
56927;SDS011;60850;52.502;13.426;2023-04-06T09:49:45;2.95;;;1.85;;
56927;SDS011;60850;52.502;13.426;2023-04-06T09:52:16;2.75;;;1.83;;
56927;SDS011;60850;52.502;13.426;2023-04-06T09:54:46;2.85;;;1.83;;
56927;SDS011;60850;52.502;13.426;2023-04-06T09:57:20;2.08;;;1.60;;
56927;SDS011;60850;52.502;13.426;2023-04-06T09:59:58;4.20;;;1.58;;
56927;SDS011;60850;52.502;13.426;2023-04-06T10:02:35;2.78;;;1.55;;
56927;SDS011;60850;52.502;13.426;2023-04-06T10:05:13;1.95;;;1.60;;
56927;SDS011;60850;52.502;13.426;2023-04-06T10:07:46;4.32;;;1.65;;
56927;SDS011;60850;52.502;13.426;2023-04-06T10:10:17;2.75;;;1.48;;
56927;SDS011;60850;52.502;13.426;2023-04-06T10:12:45;3.35;;;1.92;;
56927;SDS011;60850;52.502;13.426;2023-04-06T10:15:14;2.05;;;1.55;;
56927;SDS011;60850;52.502;13.426;2023-04-06T10:17:41;5.03;;;2.20;;
56927;SDS011;60850;52.502;13.426;2023-04-06T10:20:10;3.70;;;1.67;;
56927;SDS011;60850;52.502;13.426;2023-04-06T10:22:43;2.55;;;1.48;;
56927;SDS011;60850;52.502;13.426;2023-04-06T10:25:25;2.97;;;1.45;;
56927;SDS011;60850;52.502;13.426;2023-04-06T10:28:00;2.42;;;1.23;;
56927;SDS011;60850;52.502;13.426;2023-04-06T10:30:28;2.42;;;1.50;;
56927;SDS011;60850;52.502;13.426;2023-04-06T10:32:55;1.98;;;1.50;;
56927;SDS011;60850;52.502;13.426;2023-04-06T10:35:22;2.33;;;1.38;;
56927;SDS011;60850;52.502;13.426;2023-04-06T10:37:51;3.65;;;2.00;;
56927;SDS011;60850;52.502;13.426;2023-04-06T10:40:28;2.58;;;1.50;;
56927;SDS011;60850;52.502;13.426;2023-04-06T10:43:07;3.13;;;1.90;;
56927;SDS011;60850;52.502;13.426;2023-04-06T10:45:36;3.15;;;1.88;;
56927;SDS011;60850;52.502;13.426;2023-04-06T10:48:13;5.57;;;2.67;;
56927;SDS011;60850;52.502;13.426;2023-04-06T10:50:41;3.60;;;1.95;;
56927;SDS011;60850;52.502;13.426;2023-04-06T10:53:09;4.07;;;1.65;;
56927;SDS011;60850;52.502;13.426;2023-04-06T10:55:38;3.08;;;1.85;;
56927;SDS011;60850;52.502;13.426;2023-04-06T10:58:06;5.43;;;1.88;;
56927;SDS011;60850;52.502;13.426;2023-04-06T11:00:35;2.15;;;1.40;;
56927;SDS011;60850;52.502;13.426;2023-04-06T11:03:09;4.57;;;2.03;;
56927;SDS011;60850;52.502;13.426;2023-04-06T11:05:37;3.03;;;1.80;;
56927;SDS011;60850;52.502;13.426;2023-04-06T11:08:04;4.65;;;2.58;;
56927;SDS011;60850;52.502;13.426;2023-04-06T11:10:31;6.90;;;2.28;;
56927;SDS011;60850;52.502;13.426;2023-04-06T11:12:58;3.45;;;2.00;;
56927;SDS011;60850;52.502;13.426;2023-04-06T11:15:25;3.20;;;1.77;;
56927;SDS011;60850;52.502;13.426;2023-04-06T11:17:54;2.67;;;1.85;;
56927;SDS011;60850;52.502;13.426;2023-04-06T11:20:21;1.67;;;1.38;;
56927;SDS011;60850;52.502;13.426;2023-04-06T11:22:49;4.28;;;2.00;;
56927;SDS011;60850;52.502;13.426;2023-04-06T11:25:17;3.92;;;2.53;;
56927;SDS011;60850;52.502;13.426;2023-04-06T11:27:45;2.13;;;1.58;;
56927;SDS011;60850;52.502;13.426;2023-04-06T11:30:13;4.00;;;1.65;;
56927;SDS011;60850;52.502;13.426;2023-04-06T11:32:41;3.90;;;2.00;;
56927;SDS011;60850;52.502;13.426;2023-04-06T11:35:20;4.18;;;1.77;;
56927;SDS011;60850;52.502;13.426;2023-04-06T11:37:48;3.60;;;2.05;;
56927;SDS011;60850;52.502;13.426;2023-04-06T11:40:20;2.88;;;1.80;;
56927;SDS011;60850;52.502;13.426;2023-04-06T11:42:51;2.60;;;1.95;;
56927;SDS011;60850;52.502;13.426;2023-04-06T11:45:19;3.90;;;2.33;;
56927;SDS011;60850;52.502;13.426;2023-04-06T11:47:54;7.53;;;3.40;;
56927;SDS011;60850;52.502;13.426;2023-04-06T11:50:24;6.60;;;2.35;;
56927;SDS011;60850;52.502;13.426;2023-04-06T11:52:58;5.65;;;1.70;;
56927;SDS011;60850;52.502;13.426;2023-04-06T11:55:26;1.95;;;1.58;;
56927;SDS011;60850;52.502;13.426;2023-04-06T11:57:53;2.80;;;1.90;;
56927;SDS011;60850;52.502;13.426;2023-04-06T12:00:21;3.28;;;1.70;;
56927;SDS011;60850;52.502;13.426;2023-04-06T12:02:48;2.75;;;1.83;;
56927;SDS011;60850;52.502;13.426;2023-04-06T12:05:16;6.53;;;2.10;;
56927;SDS011;60850;52.502;13.426;2023-04-06T12:07:45;2.95;;;1.80;;
56927;SDS011;60850;52.502;13.426;2023-04-06T12:10:12;3.45;;;1.80;;
56927;SDS011;60850;52.502;13.426;2023-04-06T12:12:39;4.63;;;1.63;;
56927;SDS011;60850;52.502;13.426;2023-04-06T12:15:07;3.88;;;1.80;;
56927;SDS011;60850;52.502;13.426;2023-04-06T12:17:34;2.85;;;1.70;;
56927;SDS011;60850;52.502;13.426;2023-04-06T12:20:02;3.92;;;1.98;;
56927;SDS011;60850;52.502;13.426;2023-04-06T12:22:29;4.32;;;1.75;;
56927;SDS011;60850;52.502;13.426;2023-04-06T12:24:58;3.08;;;1.80;;
56927;SDS011;60850;52.502;13.426;2023-04-06T12:27:25;3.13;;;1.80;;
56927;SDS011;60850;52.502;13.426;2023-04-06T12:29:52;2.80;;;1.60;;
56927;SDS011;60850;52.502;13.426;2023-04-06T12:32:20;2.95;;;2.13;;
56927;SDS011;60850;52.502;13.426;2023-04-06T12:34:48;4.05;;;2.40;;
56927;SDS011;60850;52.502;13.426;2023-04-06T12:37:15;2.80;;;1.77;;
56927;SDS011;60850;52.502;13.426;2023-04-06T12:39:42;2.88;;;1.92;;
56927;SDS011;60850;52.502;13.426;2023-04-06T12:42:12;3.25;;;2.15;;
56927;SDS011;60850;52.502;13.426;2023-04-06T12:44:39;6.38;;;2.20;;
56927;SDS011;60850;52.502;13.426;2023-04-06T12:47:07;3.97;;;1.80;;
56927;SDS011;60850;52.502;13.426;2023-04-06T12:49:36;2.85;;;2.00;;
56927;SDS011;60850;52.502;13.426;2023-04-06T12:52:03;3.35;;;1.80;;
56927;SDS011;60850;52.502;13.426;2023-04-06T12:54:30;3.55;;;2.05;;
56927;SDS011;60850;52.502;13.426;2023-04-06T12:56:57;5.95;;;2.30;;
56927;SDS011;60850;52.502;13.426;2023-04-06T12:59:27;3.00;;;2.00;;
56927;SDS011;60850;52.502;13.426;2023-04-06T13:01:59;3.58;;;2.00;;
56927;SDS011;60850;52.502;13.426;2023-04-06T13:04:27;3.88;;;1.88;;
56927;SDS011;60850;52.502;13.426;2023-04-06T13:06:54;3.53;;;1.88;;
56927;SDS011;60850;52.502;13.426;2023-04-06T13:09:21;2.63;;;2.00;;
56927;SDS011;60850;52.502;13.426;2023-04-06T13:11:48;3.38;;;2.50;;
56927;SDS011;60850;52.502;13.426;2023-04-06T13:14:16;3.30;;;2.17;;
56927;SDS011;60850;52.502;13.426;2023-04-06T13:16:44;4.57;;;1.95;;
56927;SDS011;60850;52.502;13.426;2023-04-06T13:19:12;3.78;;;2.22;;
56927;SDS011;60850;52.502;13.426;2023-04-06T13:21:39;4.00;;;1.88;;
56927;SDS011;60850;52.502;13.426;2023-04-06T13:24:06;3.10;;;1.90;;
56927;SDS011;60850;52.502;13.426;2023-04-06T13:26:33;3.83;;;2.60;;
56927;SDS011;60850;52.502;13.426;2023-04-06T13:29:00;4.95;;;2.00;;
56927;SDS011;60850;52.502;13.426;2023-04-06T13:31:28;4.00;;;1.75;;
56927;SDS011;60850;52.502;13.426;2023-04-06T13:33:56;2.60;;;1.55;;
56927;SDS011;60850;52.502;13.426;2023-04-06T13:36:23;4.40;;;1.58;;
56927;SDS011;60850;52.502;13.426;2023-04-06T13:38:52;6.32;;;2.17;;
56927;SDS011;60850;52.502;13.426;2023-04-06T13:41:20;3.97;;;2.40;;
56927;SDS011;60850;52.502;13.426;2023-04-06T13:43:48;4.15;;;2.72;;
56927;SDS011;60850;52.502;13.426;2023-04-06T13:46:16;4.78;;;2.80;;
56927;SDS011;60850;52.502;13.426;2023-04-06T13:48:43;2.60;;;1.60;;
56927;SDS011;60850;52.502;13.426;2023-04-06T13:51:13;3.15;;;1.80;;
56927;SDS011;60850;52.502;13.426;2023-04-06T13:53:41;4.45;;;2.20;;
56927;SDS011;60850;52.502;13.426;2023-04-06T13:56:08;6.07;;;2.55;;
56927;SDS011;60850;52.502;13.426;2023-04-06T13:58:35;3.65;;;2.20;;
56927;SDS011;60850;52.502;13.426;2023-04-06T14:01:03;3.25;;;2.25;;
56927;SDS011;60850;52.502;13.426;2023-04-06T14:03:31;3.55;;;1.63;;
56927;SDS011;60850;52.502;13.426;2023-04-06T14:05:58;2.40;;;1.75;;
56927;SDS011;60850;52.502;13.426;2023-04-06T14:08:27;4.18;;;1.92;;
56927;SDS011;60850;52.502;13.426;2023-04-06T14:10:54;4.65;;;2.53;;
56927;SDS011;60850;52.502;13.426;2023-04-06T14:13:21;3.60;;;2.10;;
56927;SDS011;60850;52.502;13.426;2023-04-06T14:15:52;4.63;;;2.55;;
56927;SDS011;60850;52.502;13.426;2023-04-06T14:18:20;5.32;;;2.38;;
56927;SDS011;60850;52.502;13.426;2023-04-06T14:20:53;4.35;;;2.10;;
56927;SDS011;60850;52.502;13.426;2023-04-06T14:23:21;2.83;;;2.10;;
56927;SDS011;60850;52.502;13.426;2023-04-06T14:25:49;3.15;;;2.13;;
56927;SDS011;60850;52.502;13.426;2023-04-06T14:28:16;3.75;;;1.80;;
56927;SDS011;60850;52.502;13.426;2023-04-06T14:30:44;2.83;;;1.83;;
56927;SDS011;60850;52.502;13.426;2023-04-06T14:33:11;4.35;;;2.25;;
56927;SDS011;60850;52.502;13.426;2023-04-06T14:35:38;2.60;;;2.00;;